Time;durP1;ratioP1;P1;durP2;ratioP2;P2;SDS_P1;SDS_P2;PMS_P1;PMS_P2;Temp;Humidity;BMP_temperature;BMP_pressure;BME280_temperature;BME280_humidity;BME280_pressure;Samples;Min_cycle;Max_cycle;Signal;HPM_P1;HPM_P2
2021/03/10 00:01:11;;;;;;;54.20;31.08;;;;;;;;;;5135886;27;20027;-80
2021/03/10 00:03:36;;;;;;;57.13;32.53;;;;;;;;;;5135985;27;20047;-80
2021/03/10 00:06:02;;;;;;;59.80;33.65;;;;;;;;;;5136466;27;20040;-80
2021/03/10 00:08:27;;;;;;;59.40;32.53;;;;;;;;;;5136800;28;20042;-80
2021/03/10 00:10:52;;;;;;;54.92;31.80;;;;;;;;;;5121610;28;20035;-80
2021/03/10 00:13:18;;;;;;;64.78;36.72;;;;;;;;;;5115523;28;20035;-80
2021/03/10 00:15:43;;;;;;;66.60;37.03;;;;;;;;;;5114912;28;20130;-80
2021/03/10 00:18:09;;;;;;;58.70;33.05;;;;;;;;;;5114841;28;20042;-80
2021/03/10 00:20:34;;;;;;;59.47;33.70;;;;;;;;;;5096632;28;20032;-80
2021/03/10 00:23:00;;;;;;;59.58;32.42;;;;;;;;;;5114680;28;20118;-80
2021/03/10 00:25:25;;;;;;;59.20;32.33;;;;;;;;;;5096754;28;20036;-80
2021/03/10 00:27:51;;;;;;;56.30;33.67;;;;;;;;;;5115037;28;20065;-80
2021/03/10 00:30:17;;;;;;;58.13;32.95;;;;;;;;;;5097029;28;20035;-80
2021/03/10 00:32:42;;;;;;;68.93;35.75;;;;;;;;;;5096577;28;20515;-80
2021/03/10 00:35:08;;;;;;;61.60;33.45;;;;;;;;;;5114957;28;20039;-79
2021/03/10 00:37:34;;;;;;;60.45;32.03;;;;;;;;;;5115061;28;20040;-79
2021/03/10 00:39:59;;;;;;;55.55;33.30;;;;;;;;;;5114278;28;20027;-79
2021/03/10 00:42:25;;;;;;;60.63;35.15;;;;;;;;;;5096783;28;20366;-79
2021/03/10 00:44:50;;;;;;;61.92;34.08;;;;;;;;;;5114593;28;20047;-79
2021/03/10 00:47:16;;;;;;;58.00;33.45;;;;;;;;;;5117613;28;20031;-79
2021/03/10 00:49:42;;;;;;;60.33;33.67;;;;;;;;;;5118522;28;20130;-80
2021/03/10 00:52:09;;;;;;;55.95;33.67;;;;;;;;;;5118583;28;20485;-79
2021/03/10 00:54:35;;;;;;;67.18;34.97;;;;;;;;;;5118452;28;20031;-79
2021/03/10 00:57:00;;;;;;;59.17;33.50;;;;;;;;;;5100240;28;20035;-80
2021/03/10 00:59:26;;;;;;;67.78;34.70;;;;;;;;;;5118543;28;20046;-80
2021/03/10 01:01:51;;;;;;;60.38;32.97;;;;;;;;;;5118624;27;20088;-80
2021/03/10 01:04:17;;;;;;;67.68;35.70;;;;;;;;;;5119365;28;20035;-79
2021/03/10 01:06:42;;;;;;;70.20;36.92;;;;;;;;;;5119320;28;20038;-79
2021/03/10 01:09:08;;;;;;;66.65;34.58;;;;;;;;;;5119420;28;20110;-80
2021/03/10 01:11:34;;;;;;;64.90;34.60;;;;;;;;;;5119075;28;20100;-80
2021/03/10 01:14:01;;;;;;;60.63;33.72;;;;;;;;;;5100106;28;20067;-80
2021/03/10 01:16:26;;;;;;;57.58;32.47;;;;;;;;;;5118856;28;20028;-80
2021/03/10 01:18:53;;;;;;;61.60;34.15;;;;;;;;;;5118629;28;20039;-79
2021/03/10 01:21:18;;;;;;;71.88;37.92;;;;;;;;;;5118536;28;20115;-79
2021/03/10 01:23:44;;;;;;;79.45;40.25;;;;;;;;;;5100609;28;20552;-79
2021/03/10 01:26:09;;;;;;;83.90;41.13;;;;;;;;;;5118371;28;20040;-79
2021/03/10 01:28:35;;;;;;;77.78;40.63;;;;;;;;;;5118365;28;20039;-80
2021/03/10 01:31:00;;;;;;;95.07;42.95;;;;;;;;;;5118132;28;20477;-79
2021/03/10 01:33:26;;;;;;;95.15;43.10;;;;;;;;;;5118374;28;20074;-79
2021/03/10 01:35:51;;;;;;;84.65;41.03;;;;;;;;;;5118514;28;20047;-79
2021/03/10 01:38:18;;;;;;;72.82;37.65;;;;;;;;;;5118025;28;20035;-79
2021/03/10 01:40:43;;;;;;;78.30;40.72;;;;;;;;;;5118668;28;20354;-79
2021/03/10 01:43:08;;;;;;;85.32;41.45;;;;;;;;;;5118715;28;20030;-80
2021/03/10 01:45:35;;;;;;;80.43;40.42;;;;;;;;;;5119185;28;20050;-79
2021/03/10 01:48:06;;;;;;;91.78;42.53;;;;;;;;;;5102152;28;20115;-79
2021/03/10 01:50:32;;;;;;;84.35;41.38;;;;;;;;;;5101983;28;20028;-79
2021/03/10 01:52:58;;;;;;;92.50;43.55;;;;;;;;;;5119978;28;20127;-79
2021/03/10 01:55:24;;;;;;;99.85;47.28;;;;;;;;;;5120136;28;20043;-80
2021/03/10 01:57:50;;;;;;;102.45;45.80;;;;;;;;;;5118732;28;20046;-79
2021/03/10 02:00:17;;;;;;;89.97;44.25;;;;;;;;;;5119969;28;20031;-79
2021/03/10 02:02:43;;;;;;;97.38;46.83;;;;;;;;;;5119528;28;20038;-79
2021/03/10 02:05:17;;;;;;;98.13;44.65;;;;;;;;;;5119602;28;20043;-79
2021/03/10 02:08:01;;;;;;;80.55;40.47;;;;;;;;;;5120411;28;20474;-79
2021/03/10 02:10:41;;;;;;;82.10;40.53;;;;;;;;;;5120114;28;20396;-79
2021/03/10 02:13:19;;;;;;;74.18;37.88;;;;;;;;;;5118793;28;20043;-79
2021/03/10 02:15:59;;;;;;;97.75;45.97;;;;;;;;;;5118922;28;20133;-79
2021/03/10 02:18:35;;;;;;;78.80;39.80;;;;;;;;;;5120560;27;20078;-79
2021/03/10 02:21:06;;;;;;;86.90;40.10;;;;;;;;;;5139131;27;20067;-79
2021/03/10 02:23:32;;;;;;;78.18;38.03;;;;;;;;;;5139317;27;20110;-79
2021/03/10 02:26:32;;;;;;;75.40;38.38;;;;;;;;;;5119944;27;20564;-79
2021/03/10 02:29:03;;;;;;;74.25;38.08;;;;;;;;;;5138919;27;20035;-79
2021/03/10 02:31:30;;;;;;;84.35;41.38;;;;;;;;;;5138981;27;20031;-79
2021/03/10 02:33:57;;;;;;;82.40;39.42;;;;;;;;;;5138984;27;20160;-79
2021/03/10 02:36:23;;;;;;;79.97;39.05;;;;;;;;;;5120143;27;20035;-80
2021/03/10 02:38:51;;;;;;;77.53;37.80;;;;;;;;;;5139193;27;20047;-79
2021/03/10 02:41:17;;;;;;;74.63;38.78;;;;;;;;;;5137446;27;20377;-79
2021/03/10 02:43:43;;;;;;;77.22;39.13;;;;;;;;;;5138078;27;20034;-80
2021/03/10 02:46:09;;;;;;;79.70;40.50;;;;;;;;;;5138295;27;20050;-80
2021/03/10 02:48:37;;;;;;;75.38;40.10;;;;;;;;;;5119792;27;20042;-80
2021/03/10 02:51:03;;;;;;;71.80;38.05;;;;;;;;;;5136911;27;20051;-80
2021/03/10 02:53:31;;;;;;;73.25;38.58;;;;;;;;;;5138150;27;20038;-79
2021/03/10 02:55:57;;;;;;;71.40;40.55;;;;;;;;;;5137293;27;20046;-79
2021/03/10 02:58:22;;;;;;;68.93;38.38;;;;;;;;;;5137134;27;20399;-79
2021/03/10 03:00:48;;;;;;;75.80;38.17;;;;;;;;;;5137522;27;20091;-79
2021/03/10 03:03:13;;;;;;;82.97;41.63;;;;;;;;;;5137602;27;20054;-79
2021/03/10 03:05:39;;;;;;;87.75;43.47;;;;;;;;;;5119256;27;20038;-80
2021/03/10 03:08:05;;;;;;;72.90;41.00;;;;;;;;;;5116703;28;20106;-80
2021/03/10 03:10:37;;;;;;;84.00;41.67;;;;;;;;;;5116533;28;20031;-80
2021/03/10 03:13:09;;;;;;;80.03;40.38;;;;;;;;;;5116521;28;20515;-80
2021/03/10 03:15:36;;;;;;;79.22;40.13;;;;;;;;;;5097499;28;20415;-80
2021/03/10 03:18:03;;;;;;;79.13;40.72;;;;;;;;;;5115951;28;20111;-79
2021/03/10 03:20:28;;;;;;;76.88;39.60;;;;;;;;;;5115039;28;20039;-83
2021/03/10 03:22:56;;;;;;;83.10;43.60;;;;;;;;;;5136525;27;20038;-81
2021/03/10 03:25:24;;;;;;;66.90;38.88;;;;;;;;;;5136544;27;20039;-81
2021/03/10 03:27:55;;;;;;;81.65;41.97;;;;;;;;;;5136226;27;20420;-81
2021/03/10 03:30:22;;;;;;;66.47;36.92;;;;;;;;;;5118462;27;20070;-80
2021/03/10 03:32:49;;;;;;;61.78;35.63;;;;;;;;;;5138591;27;20031;-81
2021/03/10 03:35:18;;;;;;;69.20;38.22;;;;;;;;;;5117624;27;20027;-81
2021/03/10 03:37:49;;;;;;;66.22;38.15;;;;;;;;;;5135567;27;20095;-81
2021/03/10 03:40:16;;;;;;;72.30;38.50;;;;;;;;;;5135919;27;20482;-81
2021/03/10 03:42:41;;;;;;;67.07;38.05;;;;;;;;;;5117797;27;20031;-81
2021/03/10 03:45:08;;;;;;;72.68;40.78;;;;;;;;;;5135355;27;20501;-80
2021/03/10 03:47:35;;;;;;;87.88;42.92;;;;;;;;;;5134495;27;20096;-80
2021/03/10 03:50:00;;;;;;;78.05;41.55;;;;;;;;;;5096997;28;20043;-80
2021/03/10 03:52:27;;;;;;;78.20;42.45;;;;;;;;;;5116060;28;20043;-82
2021/03/10 03:54:53;;;;;;;74.88;40.17;;;;;;;;;;5099869;28;20431;-78
2021/03/10 03:57:18;;;;;;;73.38;39.30;;;;;;;;;;5115271;28;20083;-80
2021/03/10 03:59:43;;;;;;;76.15;40.13;;;;;;;;;;5114821;28;20046;-80
2021/03/10 04:02:09;;;;;;;85.00;42.65;;;;;;;;;;5119948;28;20032;-79
2021/03/10 04:04:34;;;;;;;73.50;38.78;;;;;;;;;;5115515;28;20159;-80
2021/03/10 04:07:00;;;;;;;73.55;38.40;;;;;;;;;;5099066;28;20043;-80
2021/03/10 04:09:26;;;;;;;73.60;38.63;;;;;;;;;;5117118;28;20120;-81
2021/03/10 04:11:52;;;;;;;65.03;36.35;;;;;;;;;;5117003;28;20031;-81
2021/03/10 04:14:18;;;;;;;76.25;38.75;;;;;;;;;;5100425;28;20076;-80
2021/03/10 04:16:43;;;;;;;71.03;38.70;;;;;;;;;;5099448;28;20032;-80
2021/03/10 04:19:10;;;;;;;77.68;39.90;;;;;;;;;;5117946;28;20051;-80
2021/03/10 04:21:35;;;;;;;69.55;37.30;;;;;;;;;;5119365;28;20470;-80
2021/03/10 04:24:02;;;;;;;71.78;38.72;;;;;;;;;;5103382;28;20031;-80
2021/03/10 04:26:28;;;;;;;77.32;38.35;;;;;;;;;;5122028;28;20046;-80
2021/03/10 04:28:53;;;;;;;78.15;40.55;;;;;;;;;;5121385;28;20035;-81
2021/03/10 04:31:19;;;;;;;73.45;40.10;;;;;;;;;;5103098;28;20084;-81
2021/03/10 04:33:44;;;;;;;77.95;40.08;;;;;;;;;;5120524;28;20039;-80
2021/03/10 04:36:10;;;;;;;73.45;39.78;;;;;;;;;;5121456;28;20027;-81
2021/03/10 04:38:36;;;;;;;72.53;36.83;;;;;;;;;;5123647;28;20039;-81
2021/03/10 04:41:02;;;;;;;70.35;37.67;;;;;;;;;;5103426;28;20028;-81
2021/03/10 04:43:27;;;;;;;72.57;39.63;;;;;;;;;;5102730;28;20027;-81
2021/03/10 04:45:53;;;;;;;65.78;35.60;;;;;;;;;;5082743;28;20043;-81
2021/03/10 04:48:19;;;;;;;71.68;39.03;;;;;;;;;;5099376;28;20113;-81
2021/03/10 04:50:45;;;;;;;78.28;39.30;;;;;;;;;;5112684;28;20043;-81
2021/03/10 04:53:10;;;;;;;79.63;39.28;;;;;;;;;;5118710;28;20130;-81
2021/03/10 04:55:36;;;;;;;75.32;38.35;;;;;;;;;;5117860;28;20035;-81
2021/03/10 04:58:01;;;;;;;68.32;35.63;;;;;;;;;;5118026;28;20417;-81
2021/03/10 05:00:27;;;;;;;65.90;35.90;;;;;;;;;;5120052;28;20031;-80
2021/03/10 05:02:52;;;;;;;72.03;38.92;;;;;;;;;;5120233;28;20115;-81
2021/03/10 05:05:18;;;;;;;69.35;36.47;;;;;;;;;;5119894;28;20473;-81
2021/03/10 05:07:44;;;;;;;74.88;39.65;;;;;;;;;;5120768;28;20035;-81
2021/03/10 05:10:10;;;;;;;74.38;38.33;;;;;;;;;;5120466;28;20046;-81
2021/03/10 05:12:35;;;;;;;74.28;39.92;;;;;;;;;;5119786;28;20076;-80
2021/03/10 05:15:02;;;;;;;78.57;40.03;;;;;;;;;;5120728;28;20024;-81
2021/03/10 05:17:28;;;;;;;72.45;38.75;;;;;;;;;;5119928;28;20043;-81
2021/03/10 05:19:54;;;;;;;81.38;40.92;;;;;;;;;;5121814;28;20137;-81
2021/03/10 05:22:20;;;;;;;80.10;41.45;;;;;;;;;;5119865;28;20028;-81
2021/03/10 05:24:46;;;;;;;84.05;42.58;;;;;;;;;;5121366;28;20036;-81
2021/03/10 05:27:11;;;;;;;82.47;40.67;;;;;;;;;;5121168;28;20039;-81
2021/03/10 05:29:37;;;;;;;77.35;42.03;;;;;;;;;;5120510;28;20406;-81
2021/03/10 05:32:02;;;;;;;74.45;39.00;;;;;;;;;;5120201;28;20034;-81
2021/03/10 05:34:28;;;;;;;75.28;39.30;;;;;;;;;;5119070;28;20744;-81
2021/03/10 05:36:54;;;;;;;72.63;37.45;;;;;;;;;;5120149;28;20094;-80
2021/03/10 05:39:19;;;;;;;71.53;37.17;;;;;;;;;;5119641;28;20040;-80
2021/03/10 05:41:47;;;;;;;68.38;34.60;;;;;;;;;;5121282;28;20031;-81
2021/03/10 05:44:13;;;;;;;64.93;35.55;;;;;;;;;;5122088;27;20046;-81
2021/03/10 05:46:39;;;;;;;69.97;36.83;;;;;;;;;;5125919;27;20035;-81
2021/03/10 05:49:05;;;;;;;69.05;36.95;;;;;;;;;;5143349;27;20122;-81
2021/03/10 05:51:31;;;;;;;75.13;39.67;;;;;;;;;;5135579;27;20027;-81
2021/03/10 05:54:01;;;;;;;70.53;38.97;;;;;;;;;;5104942;28;20059;-81
2021/03/10 05:56:30;;;;;;;71.85;37.13;;;;;;;;;;5104515;28;20100;-81
2021/03/10 05:58:57;;;;;;;73.35;38.47;;;;;;;;;;5122535;28;20092;-81
2021/03/10 06:01:23;;;;;;;73.07;38.38;;;;;;;;;;5121690;28;20483;-81
2021/03/10 06:03:58;;;;;;;76.75;40.05;;;;;;;;;;5102151;28;20078;-82
2021/03/10 06:06:25;;;;;;;67.57;36.72;;;;;;;;;;5124803;28;20389;-78
2021/03/10 06:08:51;;;;;;;70.53;37.70;;;;;;;;;;5121835;28;20120;-79
2021/03/10 06:11:23;;;;;;;70.28;38.90;;;;;;;;;;5119371;28;20036;-81
2021/03/10 06:13:50;;;;;;;67.38;36.28;;;;;;;;;;5099390;28;20073;-81
2021/03/10 06:16:24;;;;;;;69.75;38.20;;;;;;;;;;5099876;28;20042;-80
2021/03/10 06:19:01;;;;;;;61.70;36.13;;;;;;;;;;5118156;28;20063;-80
2021/03/10 06:21:26;;;;;;;62.45;35.55;;;;;;;;;;5106554;27;20453;-80
2021/03/10 06:24:00;;;;;;;69.35;37.20;;;;;;;;;;5138904;27;20031;-81
2021/03/10 06:26:28;;;;;;;68.25;35.83;;;;;;;;;;5136620;27;20031;-79
2021/03/10 06:28:54;;;;;;;75.60;39.15;;;;;;;;;;5137129;27;20035;-78
2021/03/10 06:31:24;;;;;;;72.63;38.92;;;;;;;;;;5137643;27;20088;-78
2021/03/10 06:34:00;;;;;;;74.90;40.80;;;;;;;;;;5118666;27;20453;-80
2021/03/10 06:36:27;;;;;;;68.40;38.33;;;;;;;;;;5137086;27;20045;-78
2021/03/10 06:38:52;;;;;;;71.32;39.90;;;;;;;;;;5136994;27;20042;-79
2021/03/10 06:41:28;;;;;;;76.47;42.45;;;;;;;;;;5137686;27;20035;-79
2021/03/10 06:43:54;;;;;;;80.82;47.13;;;;;;;;;;5137059;27;20085;-80
2021/03/10 06:46:22;;;;;;;90.72;49.35;;;;;;;;;;5137431;27;20047;-81
2021/03/10 06:49:00;;;;;;;84.50;46.55;;;;;;;;;;5137230;27;20027;-81
2021/03/10 06:51:27;;;;;;;81.30;46.08;;;;;;;;;;5118277;27;20034;-80
2021/03/10 06:53:53;;;;;;;80.53;43.47;;;;;;;;;;5136601;27;20052;-81
2021/03/10 06:56:23;;;;;;;73.40;41.53;;;;;;;;;;5118705;27;20031;-82
2021/03/10 06:58:55;;;;;;;79.25;42.40;;;;;;;;;;5119052;27;20130;-80
2021/03/10 07:01:21;;;;;;;72.03;38.97;;;;;;;;;;5115186;27;20039;-81
2021/03/10 07:03:48;;;;;;;70.70;40.22;;;;;;;;;;5116103;27;20460;-81
2021/03/10 07:06:16;;;;;;;67.70;39.95;;;;;;;;;;5120370;27;20541;-79
2021/03/10 07:08:42;;;;;;;71.75;40.55;;;;;;;;;;5121156;27;20496;-79
2021/03/10 07:11:08;;;;;;;70.97;38.95;;;;;;;;;;5121380;27;20035;-79
2021/03/10 07:13:33;;;;;;;70.07;38.90;;;;;;;;;;5116883;28;20036;-80
2021/03/10 07:16:00;;;;;;;73.32;38.88;;;;;;;;;;5097993;28;20036;-83
2021/03/10 07:18:27;;;;;;;69.88;39.63;;;;;;;;;;5080418;28;20059;-78
2021/03/10 07:20:55;;;;;;;72.65;39.63;;;;;;;;;;5116543;28;20031;-80
2021/03/10 07:23:24;;;;;;;70.88;41.17;;;;;;;;;;5117774;28;20043;-79
2021/03/10 07:25:51;;;;;;;72.13;40.75;;;;;;;;;;5128638;27;20346;-79
2021/03/10 07:28:25;;;;;;;65.25;37.65;;;;;;;;;;5118732;27;20536;-77
2021/03/10 07:30:51;;;;;;;73.05;39.67;;;;;;;;;;5117802;27;20042;-78
2021/03/10 07:33:22;;;;;;;65.32;38.83;;;;;;;;;;5136032;27;20045;-76
2021/03/10 07:35:48;;;;;;;61.80;37.75;;;;;;;;;;5120024;27;20046;-81
2021/03/10 07:38:14;;;;;;;65.18;37.15;;;;;;;;;;5118779;27;20409;-80
2021/03/10 07:41:02;;;;;;;66.53;39.13;;;;;;;;;;5122338;27;20035;-82
2021/03/10 07:43:48;;;;;;;67.22;38.55;;;;;;;;;;5123712;27;20041;-81
2021/03/10 07:46:22;;;;;;;62.85;37.58;;;;;;;;;;5108934;27;20082;-82
2021/03/10 07:48:48;;;;;;;62.70;38.63;;;;;;;;;;5121866;27;20031;-78
2021/03/10 07:51:26;;;;;;;62.40;37.00;;;;;;;;;;5138281;27;20023;-78
2021/03/10 07:53:51;;;;;;;62.20;37.10;;;;;;;;;;5138191;27;20031;-79
2021/03/10 07:56:31;;;;;;;58.80;35.53;;;;;;;;;;5125196;27;20042;-78
2021/03/10 07:59:14;;;;;;;63.25;38.92;;;;;;;;;;5136663;27;20023;-79
2021/03/10 08:01:40;;;;;;;60.30;37.53;;;;;;;;;;5136927;27;20039;-77
2021/03/10 08:04:16;;;;;;;61.40;36.60;;;;;;;;;;5134745;27;20039;-77
2021/03/10 08:06:48;;;;;;;53.22;34.72;;;;;;;;;;5134497;27;20396;-76
2021/03/10 08:09:17;;;;;;;50.08;33.65;;;;;;;;;;5133550;27;20400;-77
2021/03/10 08:11:45;;;;;;;52.55;32.05;;;;;;;;;;5114563;28;20019;-76
2021/03/10 08:14:13;;;;;;;52.90;34.92;;;;;;;;;;5134140;27;20042;-76
2021/03/10 08:16:47;;;;;;;50.70;32.38;;;;;;;;;;5134356;28;20050;-76
2021/03/10 08:19:13;;;;;;;54.90;35.55;;;;;;;;;;5134340;28;20035;-76
2021/03/10 08:21:51;;;;;;;52.17;34.00;;;;;;;;;;5115752;28;20039;-76
2021/03/10 08:24:17;;;;;;;48.35;32.97;;;;;;;;;;5134040;27;20031;-77
2021/03/10 08:26:47;;;;;;;50.13;31.40;;;;;;;;;;5133205;28;20034;-77
2021/03/10 08:29:12;;;;;;;53.00;32.45;;;;;;;;;;5134249;28;20038;-77
2021/03/10 08:31:45;;;;;;;49.80;32.85;;;;;;;;;;5134384;28;20031;-78
2021/03/10 08:34:10;;;;;;;52.00;33.92;;;;;;;;;;5137841;27;20035;-79
2021/03/10 08:36:36;;;;;;;49.17;32.33;;;;;;;;;;5137024;28;20034;-78
2021/03/10 08:39:13;;;;;;;47.38;32.30;;;;;;;;;;5116058;28;20080;-77
2021/03/10 08:41:47;;;;;;;55.83;35.55;;;;;;;;;;5115523;28;20092;-76
2021/03/10 08:44:12;;;;;;;45.97;30.45;;;;;;;;;;5133817;27;20096;-77
2021/03/10 08:46:41;;;;;;;51.35;33.10;;;;;;;;;;5134209;28;20039;-77
2021/03/10 08:49:25;;;;;;;48.50;32.67;;;;;;;;;;5133378;28;20033;-76
2021/03/10 08:52:02;;;;;;;52.45;32.80;;;;;;;;;;5133828;28;20106;-76
2021/03/10 08:54:28;;;;;;;50.75;34.47;;;;;;;;;;5133858;27;20369;-77
2021/03/10 08:56:53;;;;;;;51.28;33.53;;;;;;;;;;5116357;28;20069;-77
2021/03/10 08:59:19;;;;;;;51.80;34.25;;;;;;;;;;5116179;28;20046;-77
2021/03/10 09:01:47;;;;;;;48.45;31.73;;;;;;;;;;5117577;28;20084;-81
2021/03/10 09:04:21;;;;;;;47.78;32.22;;;;;;;;;;5117281;27;20027;-78
2021/03/10 09:06:46;;;;;;;46.00;30.83;;;;;;;;;;5115688;27;20043;-77
2021/03/10 09:09:12;;;;;;;51.20;32.00;;;;;;;;;;5120323;27;20056;-77
2021/03/10 09:11:38;;;;;;;51.00;31.33;;;;;;;;;;5120181;27;20161;-77
2021/03/10 09:14:18;;;;;;;46.50;30.65;;;;;;;;;;5120651;27;20030;-77
2021/03/10 09:16:59;;;;;;;46.10;30.73;;;;;;;;;;5121571;27;20035;-79
2021/03/10 09:19:38;;;;;;;46.90;31.65;;;;;;;;;;5121892;27;20601;-80
2021/03/10 09:22:14;;;;;;;45.92;32.15;;;;;;;;;;5122577;27;20028;-80
2021/03/10 09:24:54;;;;;;;45.83;30.60;;;;;;;;;;5122271;27;20027;-80
2021/03/10 09:27:23;;;;;;;48.83;32.22;;;;;;;;;;5122714;27;20055;-83
2021/03/10 09:29:53;;;;;;;45.03;30.38;;;;;;;;;;5129497;27;20031;-79
2021/03/10 09:32:19;;;;;;;44.97;30.33;;;;;;;;;;5144643;27;20492;-78
2021/03/10 09:34:54;;;;;;;43.67;30.95;;;;;;;;;;5144335;27;20031;-79
2021/03/10 09:37:25;;;;;;;44.45;30.58;;;;;;;;;;5124866;27;20035;-77
2021/03/10 09:39:54;;;;;;;44.58;29.83;;;;;;;;;;5144047;27;20034;-79
2021/03/10 09:42:32;;;;;;;42.78;29.70;;;;;;;;;;5111565;27;20052;-79
2021/03/10 09:45:03;;;;;;;43.95;29.55;;;;;;;;;;5141299;27;20168;-79
2021/03/10 09:47:48;;;;;;;42.53;30.27;;;;;;;;;;5124084;27;20099;-78
2021/03/10 09:50:31;;;;;;;40.80;29.40;;;;;;;;;;5123481;27;20023;-78
2021/03/10 09:53:15;;;;;;;43.75;30.52;;;;;;;;;;5122651;27;20042;-79
2021/03/10 09:55:41;;;;;;;42.08;29.65;;;;;;;;;;5141675;27;20076;-78
2021/03/10 09:58:08;;;;;;;43.20;29.92;;;;;;;;;;5124076;27;20031;-81
2021/03/10 10:00:41;;;;;;;41.42;29.17;;;;;;;;;;5123032;27;20027;-80
2021/03/10 10:03:08;;;;;;;39.05;28.42;;;;;;;;;;5120800;27;20034;-81
2021/03/10 10:05:38;;;;;;;44.70;30.55;;;;;;;;;;5120643;27;20485;-81
2021/03/10 10:08:06;;;;;;;40.65;28.70;;;;;;;;;;5122876;27;20057;-78
2021/03/10 10:10:34;;;;;;;41.00;29.60;;;;;;;;;;5125853;27;20058;-78
2021/03/10 10:13:01;;;;;;;39.75;29.08;;;;;;;;;;5121572;27;20035;-77
2021/03/10 10:15:34;;;;;;;41.00;29.52;;;;;;;;;;5120984;27;20027;-77
2021/03/10 10:18:06;;;;;;;42.72;29.25;;;;;;;;;;5120597;27;20097;-78
2021/03/10 10:20:34;;;;;;;44.45;30.05;;;;;;;;;;5124361;27;20031;-78
2021/03/10 10:23:03;;;;;;;42.15;29.70;;;;;;;;;;5141368;27;20361;-77
2021/03/10 10:25:33;;;;;;;38.75;28.50;;;;;;;;;;5122112;27;20045;-78
2021/03/10 10:28:00;;;;;;;41.15;28.65;;;;;;;;;;5118235;27;20039;-77
2021/03/10 10:30:26;;;;;;;42.35;28.58;;;;;;;;;;5134867;27;20027;-77
2021/03/10 10:32:51;;;;;;;42.22;29.27;;;;;;;;;;5109330;27;20031;-76
2021/03/10 10:35:20;;;;;;;40.03;28.40;;;;;;;;;;5108345;28;20031;-77
2021/03/10 10:37:47;;;;;;;40.65;29.23;;;;;;;;;;5115827;28;20023;-77
2021/03/10 10:40:19;;;;;;;38.67;28.08;;;;;;;;;;5098591;28;20038;-76
2021/03/10 10:42:46;;;;;;;38.17;27.40;;;;;;;;;;5097815;28;20032;-77
2021/03/10 10:45:14;;;;;;;39.80;28.35;;;;;;;;;;5106304;27;20039;-79
2021/03/10 10:47:40;;;;;;;40.95;29.75;;;;;;;;;;5122577;27;20028;-80
2021/03/10 10:50:14;;;;;;;44.00;29.98;;;;;;;;;;5118714;27;20030;-78
2021/03/10 10:52:44;;;;;;;39.65;29.17;;;;;;;;;;5118963;27;20031;-78
2021/03/10 10:55:12;;;;;;;42.75;30.08;;;;;;;;;;5119177;27;20027;-77
2021/03/10 10:57:40;;;;;;;45.40;31.98;;;;;;;;;;5137189;27;20034;-77
2021/03/10 11:00:08;;;;;;;37.90;27.30;;;;;;;;;;5117509;27;20061;-76
2021/03/10 11:02:33;;;;;;;40.22;28.90;;;;;;;;;;5135803;27;20130;-77
2021/03/10 11:05:08;;;;;;;43.47;28.27;;;;;;;;;;5103051;27;20045;-79
2021/03/10 11:07:34;;;;;;;46.80;28.45;;;;;;;;;;5116405;27;20035;-82
2021/03/10 11:10:04;;;;;;;41.70;28.00;;;;;;;;;;5119331;28;20023;-78
2021/03/10 11:12:33;;;;;;;41.80;28.23;;;;;;;;;;5102131;28;20031;-78
2021/03/10 11:15:03;;;;;;;39.60;27.73;;;;;;;;;;5101050;28;20042;-78
2021/03/10 11:17:38;;;;;;;39.80;28.63;;;;;;;;;;5101547;28;20377;-78
2021/03/10 11:20:06;;;;;;;39.15;27.48;;;;;;;;;;5099656;28;20038;-79
2021/03/10 11:22:33;;;;;;;40.25;28.23;;;;;;;;;;5100363;28;20028;-79
2021/03/10 11:24:59;;;;;;;42.30;28.33;;;;;;;;;;5117686;28;20107;-78
2021/03/10 11:27:25;;;;;;;35.40;24.83;;;;;;;;;;5099236;28;20493;-78
2021/03/10 11:29:52;;;;;;;35.40;24.45;;;;;;;;;;5099548;28;20070;-78
2021/03/10 11:32:18;;;;;;;34.20;22.85;;;;;;;;;;5100998;28;20047;-78
2021/03/10 11:34:44;;;;;;;35.08;23.45;;;;;;;;;;5100378;28;20031;-81
2021/03/10 11:37:11;;;;;;;37.65;25.13;;;;;;;;;;5118472;28;20031;-78
2021/03/10 11:39:37;;;;;;;35.83;24.67;;;;;;;;;;5100501;28;20028;-78
2021/03/10 11:42:04;;;;;;;33.92;24.30;;;;;;;;;;5099832;28;20031;-78
2021/03/10 11:44:29;;;;;;;32.55;23.52;;;;;;;;;;5100353;28;20073;-79
2021/03/10 11:46:54;;;;;;;35.28;23.42;;;;;;;;;;5100336;28;20441;-78
2021/03/10 11:49:20;;;;;;;32.80;23.17;;;;;;;;;;5125971;27;20027;-79
2021/03/10 11:51:46;;;;;;;32.00;21.63;;;;;;;;;;5138508;27;20031;-78
2021/03/10 11:54:12;;;;;;;28.45;20.15;;;;;;;;;;5138230;27;20035;-78
2021/03/10 11:56:37;;;;;;;35.65;22.25;;;;;;;;;;5103078;27;20035;-78
2021/03/10 11:59:03;;;;;;;29.70;19.50;;;;;;;;;;5138309;27;20054;-78
2021/03/10 12:01:46;;;;;;;27.52;18.02;;;;;;;;;;5119043;27;20377;-79
2021/03/10 12:04:13;;;;;;;28.52;17.88;;;;;;;;;;5134871;27;20031;-79
2021/03/10 12:06:49;;;;;;;31.60;19.47;;;;;;;;;;5119098;27;20515;-80
2021/03/10 12:09:14;;;;;;;26.63;18.73;;;;;;;;;;5139850;27;20031;-80
2021/03/10 12:11:40;;;;;;;24.33;17.08;;;;;;;;;;5140738;27;20027;-80
2021/03/10 12:14:05;;;;;;;25.25;17.60;;;;;;;;;;5140463;27;20041;-80
2021/03/10 12:16:30;;;;;;;23.98;16.50;;;;;;;;;;5139796;28;20397;-79
2021/03/10 12:18:56;;;;;;;29.02;18.60;;;;;;;;;;5138972;28;20481;-79
2021/03/10 12:21:23;;;;;;;26.50;17.08;;;;;;;;;;5119896;28;20039;-78
2021/03/10 12:23:48;;;;;;;25.25;17.30;;;;;;;;;;5136269;28;20110;-78
2021/03/10 12:26:14;;;;;;;24.40;17.15;;;;;;;;;;5136163;27;20038;-78
2021/03/10 12:28:40;;;;;;;25.95;17.52;;;;;;;;;;5136205;28;20062;-78
2021/03/10 12:31:06;;;;;;;25.63;17.27;;;;;;;;;;5135782;28;20031;-78
2021/03/10 12:33:31;;;;;;;23.30;16.60;;;;;;;;;;5135640;28;20019;-78
2021/03/10 12:35:56;;;;;;;22.92;14.98;;;;;;;;;;5117503;28;20041;-78
2021/03/10 12:38:22;;;;;;;26.40;16.42;;;;;;;;;;5135591;28;20037;-78
2021/03/10 12:40:47;;;;;;;24.67;16.13;;;;;;;;;;5118034;28;20108;-78
2021/03/10 12:43:13;;;;;;;26.05;16.08;;;;;;;;;;5138979;27;20038;-78
2021/03/10 12:45:38;;;;;;;21.13;14.85;;;;;;;;;;5139796;27;20477;-78
2021/03/10 12:48:04;;;;;;;20.58;14.52;;;;;;;;;;5121617;27;20035;-78
2021/03/10 12:50:30;;;;;;;21.98;14.48;;;;;;;;;;5139693;27;20039;-78
2021/03/10 12:52:56;;;;;;;23.00;15.20;;;;;;;;;;5140139;27;20107;-78
2021/03/10 12:55:24;;;;;;;23.45;14.48;;;;;;;;;;5139838;27;20043;-78
2021/03/10 12:57:49;;;;;;;19.80;14.20;;;;;;;;;;5140180;27;20068;-78
2021/03/10 13:00:16;;;;;;;19.92;13.55;;;;;;;;;;5121509;27;20072;-78
2021/03/10 13:02:42;;;;;;;20.10;13.50;;;;;;;;;;5140277;27;20027;-78
2021/03/10 13:05:08;;;;;;;21.73;13.95;;;;;;;;;;5139606;27;20541;-78
2021/03/10 13:07:34;;;;;;;20.25;13.38;;;;;;;;;;5139537;27;20046;-78
2021/03/10 13:09:59;;;;;;;18.33;12.57;;;;;;;;;;5139414;27;20035;-78
2021/03/10 13:12:24;;;;;;;17.17;11.70;;;;;;;;;;5139315;27;20031;-77
2021/03/10 13:14:50;;;;;;;20.90;13.15;;;;;;;;;;5139144;27;20048;-78
2021/03/10 13:17:15;;;;;;;18.83;12.55;;;;;;;;;;5139332;27;20023;-77
2021/03/10 13:19:41;;;;;;;15.95;11.65;;;;;;;;;;5111100;28;20034;-78
2021/03/10 13:22:07;;;;;;;20.05;12.02;;;;;;;;;;5100607;28;20035;-78
2021/03/10 13:24:33;;;;;;;20.63;11.75;;;;;;;;;;5118870;28;20032;-78
2021/03/10 13:26:59;;;;;;;15.18;11.65;;;;;;;;;;5118424;28;20036;-78
2021/03/10 13:29:24;;;;;;;15.68;10.77;;;;;;;;;;5100013;28;20124;-78
2021/03/10 13:31:50;;;;;;;18.33;12.60;;;;;;;;;;5118575;28;20036;-78
2021/03/10 13:34:16;;;;;;;17.13;12.13;;;;;;;;;;5118585;28;20050;-78
2021/03/10 13:36:42;;;;;;;22.02;13.60;;;;;;;;;;5100026;28;20042;-78
2021/03/10 13:39:07;;;;;;;23.33;14.20;;;;;;;;;;5099557;28;20110;-78
2021/03/10 13:41:33;;;;;;;19.85;13.77;;;;;;;;;;5099727;28;20028;-77
2021/03/10 13:43:58;;;;;;;18.38;13.20;;;;;;;;;;5099864;28;20109;-78
2021/03/10 13:46:24;;;;;;;20.75;13.00;;;;;;;;;;5117422;28;20074;-78
2021/03/10 13:48:49;;;;;;;19.00;12.98;;;;;;;;;;5117989;28;20377;-78
2021/03/10 13:51:15;;;;;;;18.95;13.00;;;;;;;;;;5082533;28;20024;-78
2021/03/10 13:53:40;;;;;;;24.17;13.88;;;;;;;;;;5098498;28;20441;-77
2021/03/10 13:56:06;;;;;;;21.10;14.13;;;;;;;;;;5118407;28;20081;-78
2021/03/10 13:58:31;;;;;;;20.33;13.30;;;;;;;;;;5119320;27;20114;-78
2021/03/10 14:00:56;;;;;;;23.35;14.32;;;;;;;;;;5118141;28;20035;-78
2021/03/10 14:03:22;;;;;;;19.30;13.35;;;;;;;;;;5099197;28;20030;-78
2021/03/10 14:05:49;;;;;;;21.08;13.60;;;;;;;;;;5098668;28;20076;-77
2021/03/10 14:08:15;;;;;;;22.52;14.00;;;;;;;;;;5117213;28;20031;-78
2021/03/10 14:10:41;;;;;;;20.35;12.80;;;;;;;;;;5116959;28;20217;-77
2021/03/10 14:13:06;;;;;;;23.67;14.15;;;;;;;;;;5117064;28;20548;-77
2021/03/10 14:15:32;;;;;;;18.77;12.57;;;;;;;;;;5098418;28;20039;-78
2021/03/10 14:17:57;;;;;;;20.83;12.77;;;;;;;;;;5118498;28;20071;-78
2021/03/10 14:20:24;;;;;;;18.40;13.18;;;;;;;;;;5137144;27;20035;-78